MST,Max TemperatureF,Mean TemperatureF,Min TemperatureF,Max Dew PointF,MeanDew PointF,Min DewpointF,Max Humidity, Mean Humidity, Min Humidity, Max Sea Level PressureIn, Mean Sea Level PressureIn, Min Sea Level PressureIn, Max VisibilityMiles, Mean VisibilityMiles, Min VisibilityMiles, Max Wind SpeedMPH, Mean Wind SpeedMPH, Max Gust SpeedMPH,PrecipitationIn, CloudCover, Events, WindDirDegrees
2013-1-1,31,18,5,27,20,3,96,83,69,30.22,30.13,30.00,10,6,0,23,11,29,0.01,6,Fog-Snow,284
2013-1-2,29,17,5,20,14,2,88,75,62,30.46,30.29,30.10,10,9,2,20,13,30,T,6,Snow,301
2013-1-3,25,14,2,12,5,-2,95,79,62,30.41,30.29,30.23,10,9,1,12,6,13,0.00,1,,168
2013-1-4,33,19,4,21,10,-1,86,68,50,30.21,30.17,30.11,10,10,10,16,6,20,0.00,1,,185
2013-1-5,37,26,14,23,18,11,88,70,52,30.31,30.24,30.13,10,10,10,15,8,20,0.00,1,,272
2013-1-6,33,19,5,21,15,3,88,73,58,30.18,30.00,29.90,10,10,10,15,7,18,0.00,2,,172
2013-1-7,35,26,16,29,21,14,92,76,59,30.00,29.86,29.63,10,9,2,16,7,18,0.01,6,Snow,172
2013-1-8,40,31,22,34,27,17,84,74,64,30.11,29.87,29.67,10,10,10,30,9,38,0.01,6,Rain,268
2013-1-9,43,33,22,30,25,17,81,70,59,30.08,29.93,29.73,10,10,10,13,9,17,0.00,1,,154
2013-1-10,41,29,17,30,26,14,96,78,60,29.75,29.61,29.51,10,9,4,24,13,28,T,3,,333
2013-1-11,17,11,5,13,6,-1,88,81,73,30.21,29.85,29.67,10,3,0,31,19,36,0.03,8,Fog-Snow,323
2013-1-12,9,2,-5,0,-4,-11,86,77,68,30.35,30.29,30.06,10,9,2,23,7,29,T,5,Snow,256
2013-1-13,15,5,-6,10,5,-10,87,77,67,30.34,30.23,30.09,10,7,2,16,6,20,T,7,Snow,254
2013-1-14,20,13,6,10,6,3,88,70,51,30.30,30.18,30.07,10,8,2,18,8,23,T,8,Snow,251
2013-1-15,40,29,18,28,23,11,85,73,61,30.04,29.97,29.88,10,9,2,33,21,43,T,8,Rain-Snow,265
2013-1-16,41,34,27,30,26,23,78,69,59,30.32,30.13,29.97,10,10,10,28,14,35,0.00,5,,277
2013-1-17,42,31,20,26,23,17,91,70,49,30.38,30.20,29.96,10,10,10,17,8,23,0.00,0,,249
2013-1-18,44,38,31,28,24,20,69,59,49,29.96,29.92,29.86,10,10,10,17,7,22,0.00,0,,273
2013-1-19,36,26,16,27,20,14,92,76,59,30.35,30.24,29.98,10,10,10,20,9,23,0.00,4,,356
2013-1-20,20,11,2,14,4,-8,84,73,61,30.66,30.52,30.25,10,10,5,22,10,25,T,7,Snow,343
2013-1-21,14,9,3,7,3,-7,87,75,62,30.53,30.32,30.15,10,6,1,9,4,12,0.01,8,Snow,116
2013-1-22,26,15,3,16,10,-1,88,78,68,30.25,30.19,30.05,10,10,2,10,4,12,0.00,1,,356
2013-1-23,18,14,10,11,8,5,84,76,67,30.45,30.32,30.11,10,10,10,20,10,24,0.00,0,,65
2013-1-24,42,30,17,27,18,10,81,68,55,30.18,30.05,29.97,10,10,10,22,9,30,0.00,4,,191
2013-1-25,42,29,16,28,22,12,88,73,57,30.17,30.08,29.94,10,10,10,12,7,13,T,1,,159
2013-1-26,49,40,31,33,29,26,92,71,50,29.92,29.84,29.73,10,10,10,13,7,14,0.00,3,,144
2013-1-27,40,34,27,32,29,25,92,81,70,29.87,29.79,29.69,10,6,0,18,6,23,0.05,7,Fog-Snow,286
2013-1-28,38,29,19,30,24,15,96,86,75,29.89,29.84,29.78,10,10,3,9,6,12,T,5,Snow,206
2013-1-29,27,10,-8,20,4,-12,88,77,65,30.36,30.06,29.75,10,5,0,33,13,41,0.03,5,Fog-Snow,315
2013-1-30,11,1,-9,7,-1,-13,86,79,72,30.30,29.99,29.84,10,4,1,24,7,28,0.03,7,Snow,333
2013-1-31,11,2,-7,5,-7,-16,80,72,64,30.49,30.30,30.11,10,8,2,22,8,25,T,8,Snow,226